sensor_id;sensor_type;location;lat;lon;timestamp;pressure;altitude;pressure_sealevel;temperature
37414;BMP280;23279;46.472;30.760;2023-04-24T00:00:14;78449.06;;;-146.33
37414;BMP280;23279;46.472;30.760;2023-04-24T00:02:44;78467.38;;;-146.33
37414;BMP280;23279;46.472;30.760;2023-04-24T00:05:16;78422.59;;;-146.33
37414;BMP280;23279;46.472;30.760;2023-04-24T00:07:43;78473.50;;;-146.33
37414;BMP280;23279;46.472;30.760;2023-04-24T00:10:09;78442.97;;;-146.33
37414;BMP280;23279;46.472;30.760;2023-04-24T00:12:35;78404.28;;;-146.33
37414;BMP280;23279;46.472;30.760;2023-04-24T00:15:00;78371.72;;;-146.33
37414;BMP280;23279;46.472;30.760;2023-04-24T00:17:26;78361.56;;;-146.33
37414;BMP280;23279;46.472;30.760;2023-04-24T00:19:52;78282.19;;;-146.33
37414;BMP280;23279;46.472;30.760;2023-04-24T00:22:26;78133.63;;;-146.33
37414;BMP280;23279;46.472;30.760;2023-04-24T00:24:51;77950.47;;;-146.33
37414;BMP280;23279;46.472;30.760;2023-04-24T00:27:17;77710.38;;;-146.33
37414;BMP280;23279;46.472;30.760;2023-04-24T00:29:42;77635.09;;;-146.33
37414;BMP280;23279;46.472;30.760;2023-04-24T00:32:08;77631.03;;;-146.33
37414;BMP280;23279;46.472;30.760;2023-04-24T00:34:33;77547.59;;;-146.33
37414;BMP280;23279;46.472;30.760;2023-04-24T00:36:59;77506.91;;;-146.33
37414;BMP280;23279;46.472;30.760;2023-04-24T00:39:24;77645.28;;;-146.33
37414;BMP280;23279;46.472;30.760;2023-04-24T00:41:50;77881.31;;;-146.33
37414;BMP280;23279;46.472;30.760;2023-04-24T00:44:16;77903.69;;;-146.33
37414;BMP280;23279;46.472;30.760;2023-04-24T00:46:42;77942.34;;;-146.33
37414;BMP280;23279;46.472;30.760;2023-04-24T00:49:08;77952.53;;;-146.33
37414;BMP280;23279;46.472;30.760;2023-04-24T00:51:33;78046.13;;;-146.33
37414;BMP280;23279;46.472;30.760;2023-04-24T00:54:00;78186.53;;;-146.33
37414;BMP280;23279;46.472;30.760;2023-04-24T00:56:26;78308.63;;;-146.33
37414;BMP280;23279;46.472;30.760;2023-04-24T00:58:51;78385.97;;;-146.33
37414;BMP280;23279;46.472;30.760;2023-04-24T01:01:21;78402.25;;;-146.33
37414;BMP280;23279;46.472;30.760;2023-04-24T01:03:49;78426.69;;;-146.33
37414;BMP280;23279;46.472;30.760;2023-04-24T01:06:16;78442.97;;;-146.33
37414;BMP280;23279;46.472;30.760;2023-04-24T01:08:42;78451.09;;;-146.33
37414;BMP280;23279;46.472;30.760;2023-04-24T01:11:08;78449.06;;;-146.33
37414;BMP280;23279;46.472;30.760;2023-04-24T01:13:34;78449.06;;;-146.33
37414;BMP280;23279;46.472;30.760;2023-04-24T01:16:00;78451.09;;;-146.33
37414;BMP280;23279;46.472;30.760;2023-04-24T01:18:26;78457.22;;;-146.33
37414;BMP280;23279;46.472;30.760;2023-04-24T01:20:53;78459.25;;;-146.33
37414;BMP280;23279;46.472;30.760;2023-04-24T01:23:19;78479.59;;;-146.33
37414;BMP280;23279;46.472;30.760;2023-04-24T01:25:45;78459.25;;;-146.33
37414;BMP280;23279;46.472;30.760;2023-04-24T01:28:11;78434.81;;;-146.33
37414;BMP280;23279;46.472;30.760;2023-04-24T01:30:37;78426.69;;;-146.33
37414;BMP280;23279;46.472;30.760;2023-04-24T01:33:03;78363.59;;;-146.33
37414;BMP280;23279;46.472;30.760;2023-04-24T01:35:29;78312.72;;;-146.33
37414;BMP280;23279;46.472;30.760;2023-04-24T01:37:54;78257.75;;;-146.33
37414;BMP280;23279;46.472;30.760;2023-04-24T01:40:20;78215.03;;;-146.33
37414;BMP280;23279;46.472;30.760;2023-04-24T01:42:45;78097.00;;;-146.33
37414;BMP280;23279;46.472;30.760;2023-04-24T01:45:11;78035.94;;;-146.33
37414;BMP280;23279;46.472;30.760;2023-04-24T01:47:40;77946.41;;;-146.33
37414;BMP280;23279;46.472;30.760;2023-04-24T01:50:06;77877.22;;;-146.33
37414;BMP280;23279;46.472;30.760;2023-04-24T01:52:32;77818.22;;;-146.33
37414;BMP280;23279;46.472;30.760;2023-04-24T01:55:02;77777.53;;;-146.33
37414;BMP280;23279;46.472;30.760;2023-04-24T01:57:29;77722.59;;;-146.33
37414;BMP280;23279;46.472;30.760;2023-04-24T01:59:55;77675.78;;;-146.33
37414;BMP280;23279;46.472;30.760;2023-04-24T02:02:21;77639.16;;;-146.33
37414;BMP280;23279;46.472;30.760;2023-04-24T02:04:49;77576.09;;;-146.33
37414;BMP280;23279;46.472;30.760;2023-04-24T02:07:14;77533.38;;;-146.33
37414;BMP280;23279;46.472;30.760;2023-04-24T02:09:40;77482.50;;;-146.33
37414;BMP280;23279;46.472;30.760;2023-04-24T02:12:05;77462.16;;;-146.33
37414;BMP280;23279;46.472;30.760;2023-04-24T02:14:31;77498.78;;;-146.33
37414;BMP280;23279;46.472;30.760;2023-04-24T02:16:56;77576.09;;;-146.33
37414;BMP280;23279;46.472;30.760;2023-04-24T02:19:21;77722.59;;;-146.33
37414;BMP280;23279;46.472;30.760;2023-04-24T02:21:47;77885.38;;;-146.33
37414;BMP280;23279;46.472;30.760;2023-04-24T02:24:12;78003.38;;;-146.33
37414;BMP280;23279;46.472;30.760;2023-04-24T02:26:38;78097.00;;;-146.33
37414;BMP280;23279;46.472;30.760;2023-04-24T02:29:03;78162.13;;;-146.33
37414;BMP280;23279;46.472;30.760;2023-04-24T02:31:28;78245.56;;;-146.33
37414;BMP280;23279;46.472;30.760;2023-04-24T02:33:54;78304.56;;;-146.33
37414;BMP280;23279;46.472;30.760;2023-04-24T02:36:19;78333.06;;;-146.33
37414;BMP280;23279;46.472;30.760;2023-04-24T02:38:45;78347.31;;;-146.33
37414;BMP280;23279;46.472;30.760;2023-04-24T02:41:10;78361.56;;;-146.33
37414;BMP280;23279;46.472;30.760;2023-04-24T02:43:36;78373.75;;;-146.33
37414;BMP280;23279;46.472;30.760;2023-04-24T02:46:01;78363.59;;;-146.33
37414;BMP280;23279;46.472;30.760;2023-04-24T02:48:27;78361.56;;;-146.33
37414;BMP280;23279;46.472;30.760;2023-04-24T02:50:52;78365.63;;;-146.33
37414;BMP280;23279;46.472;30.760;2023-04-24T02:53:18;78363.59;;;-146.33
37414;BMP280;23279;46.472;30.760;2023-04-24T02:55:43;78361.56;;;-146.33
37414;BMP280;23279;46.472;30.760;2023-04-24T02:58:09;78355.44;;;-146.33
37414;BMP280;23279;46.472;30.760;2023-04-24T03:00:35;78361.56;;;-146.33
37414;BMP280;23279;46.472;30.760;2023-04-24T03:03:01;78341.19;;;-146.33
37414;BMP280;23279;46.472;30.760;2023-04-24T03:05:26;78351.38;;;-146.33
37414;BMP280;23279;46.472;30.760;2023-04-24T03:07:52;78357.47;;;-146.33
37414;BMP280;23279;46.472;30.760;2023-04-24T03:10:18;78339.16;;;-146.33
37414;BMP280;23279;46.472;30.760;2023-04-24T03:12:43;78341.19;;;-146.33
37414;BMP280;23279;46.472;30.760;2023-04-24T03:15:09;78316.78;;;-146.33
37414;BMP280;23279;46.472;30.760;2023-04-24T03:17:35;78320.84;;;-146.33
37414;BMP280;23279;46.472;30.760;2023-04-24T03:20:01;78322.88;;;-146.33
37414;BMP280;23279;46.472;30.760;2023-04-24T03:22:26;78324.91;;;-146.33
37414;BMP280;23279;46.472;30.760;2023-04-24T03:24:52;78320.84;;;-146.33
37414;BMP280;23279;46.472;30.760;2023-04-24T03:27:17;78341.19;;;-146.33
37414;BMP280;23279;46.472;30.760;2023-04-24T03:29:43;78316.78;;;-146.33
37414;BMP280;23279;46.472;30.760;2023-04-24T03:32:08;78320.84;;;-146.33
37414;BMP280;23279;46.472;30.760;2023-04-24T03:34:33;78308.63;;;-146.33
37414;BMP280;23279;46.472;30.760;2023-04-24T03:37:00;78304.56;;;-146.33
37414;BMP280;23279;46.472;30.760;2023-04-24T03:39:25;78292.34;;;-146.33
37414;BMP280;23279;46.472;30.760;2023-04-24T03:41:50;78286.25;;;-146.33
37414;BMP280;23279;46.472;30.760;2023-04-24T03:44:16;78288.28;;;-146.33
37414;BMP280;23279;46.472;30.760;2023-04-24T03:46:42;78298.47;;;-146.33
37414;BMP280;23279;46.472;30.760;2023-04-24T03:49:07;78259.78;;;-146.33
37414;BMP280;23279;46.472;30.760;2023-04-24T03:51:32;78274.03;;;-146.33
37414;BMP280;23279;46.472;30.760;2023-04-24T03:53:58;78255.72;;;-146.33
37414;BMP280;23279;46.472;30.760;2023-04-24T03:56:23;78251.66;;;-146.33
37414;BMP280;23279;46.472;30.760;2023-04-24T03:58:49;78206.88;;;-146.33
37414;BMP280;23279;46.472;30.760;2023-04-24T04:01:14;78235.38;;;-146.33
37414;BMP280;23279;46.472;30.760;2023-04-24T04:03:41;78235.38;;;-146.33
37414;BMP280;23279;46.472;30.760;2023-04-24T04:06:06;78223.16;;;-146.33
37414;BMP280;23279;46.472;30.760;2023-04-24T04:08:32;78202.81;;;-146.33
37414;BMP280;23279;46.472;30.760;2023-04-24T04:10:57;78202.81;;;-146.33
37414;BMP280;23279;46.472;30.760;2023-04-24T04:13:23;78210.97;;;-146.33
37414;BMP280;23279;46.472;30.760;2023-04-24T04:15:48;78202.81;;;-146.33
37414;BMP280;23279;46.472;30.760;2023-04-24T04:18:13;78208.91;;;-146.33
37414;BMP280;23279;46.472;30.760;2023-04-24T04:20:39;78174.31;;;-146.33
37414;BMP280;23279;46.472;30.760;2023-04-24T04:23:04;78174.31;;;-146.33
37414;BMP280;23279;46.472;30.760;2023-04-24T04:25:30;78164.16;;;-146.33
37414;BMP280;23279;46.472;30.760;2023-04-24T04:27:55;78170.25;;;-146.33
37414;BMP280;23279;46.472;30.760;2023-04-24T04:30:23;78170.25;;;-146.33
37414;BMP280;23279;46.472;30.760;2023-04-24T04:32:48;78168.22;;;-146.33
37414;BMP280;23279;46.472;30.760;2023-04-24T04:35:14;78153.97;;;-146.33
37414;BMP280;23279;46.472;30.760;2023-04-24T04:37:39;78141.75;;;-146.33
37414;BMP280;23279;46.472;30.760;2023-04-24T04:40:05;78133.63;;;-146.33
37414;BMP280;23279;46.472;30.760;2023-04-24T04:42:32;78129.56;;;-146.33
37414;BMP280;23279;46.472;30.760;2023-04-24T04:44:59;78109.22;;;-146.33
37414;BMP280;23279;46.472;30.760;2023-04-24T04:47:25;78121.41;;;-146.33
37414;BMP280;23279;46.472;30.760;2023-04-24T04:49:51;78141.75;;;-146.33
37414;BMP280;23279;46.472;30.760;2023-04-24T04:52:18;78117.34;;;-146.33
37414;BMP280;23279;46.472;30.760;2023-04-24T04:54:43;78090.88;;;-146.33
37414;BMP280;23279;46.472;30.760;2023-04-24T04:57:10;78070.53;;;-146.33
37414;BMP280;23279;46.472;30.760;2023-04-24T04:59:38;78056.28;;;-146.33
37414;BMP280;23279;46.472;30.760;2023-04-24T05:02:12;78027.81;;;-146.33
37414;BMP280;23279;46.472;30.760;2023-04-24T05:04:42;78029.84;;;-146.33
37414;BMP280;23279;46.472;30.760;2023-04-24T05:07:07;77995.25;;;-146.33
37414;BMP280;23279;46.472;30.760;2023-04-24T05:09:33;77989.16;;;-146.33
37414;BMP280;23279;46.472;30.760;2023-04-24T05:11:58;77999.31;;;-146.33
37414;BMP280;23279;46.472;30.760;2023-04-24T05:14:24;78011.53;;;-146.33
37414;BMP280;23279;46.472;30.760;2023-04-24T05:16:49;77958.63;;;-146.33
37414;BMP280;23279;46.472;30.760;2023-04-24T05:19:18;77917.94;;;-146.33
37414;BMP280;23279;46.472;30.760;2023-04-24T05:21:46;77913.84;;;-146.33
37414;BMP280;23279;46.472;30.760;2023-04-24T05:24:14;77899.59;;;-146.33
37414;BMP280;23279;46.472;30.760;2023-04-24T05:26:40;77873.16;;;-146.33
37414;BMP280;23279;46.472;30.760;2023-04-24T05:29:06;77822.28;;;-146.33
37414;BMP280;23279;46.472;30.760;2023-04-24T05:31:34;77832.47;;;-146.33
37414;BMP280;23279;46.472;30.760;2023-04-24T05:34:06;77789.72;;;-146.33
37414;BMP280;23279;46.472;30.760;2023-04-24T05:36:43;77824.31;;;-146.33
37414;BMP280;23279;46.472;30.760;2023-04-24T05:39:13;77808.03;;;-146.33
37414;BMP280;23279;46.472;30.760;2023-04-24T05:41:39;77838.56;;;-146.33
37414;BMP280;23279;46.472;30.760;2023-04-24T05:44:06;77830.44;;;-146.33
37414;BMP280;23279;46.472;30.760;2023-04-24T05:46:32;77860.94;;;-146.33
37414;BMP280;23279;46.472;30.760;2023-04-24T05:48:57;77889.44;;;-146.33
37414;BMP280;23279;46.472;30.760;2023-04-24T05:51:23;77828.41;;;-146.33
37414;BMP280;23279;46.472;30.760;2023-04-24T05:53:49;77818.22;;;-146.33
37414;BMP280;23279;46.472;30.760;2023-04-24T05:56:20;77848.75;;;-146.33
37414;BMP280;23279;46.472;30.760;2023-04-24T05:58:46;77865.03;;;-146.33
37414;BMP280;23279;46.472;30.760;2023-04-24T06:01:12;77917.94;;;-146.33
37414;BMP280;23279;46.472;30.760;2023-04-24T06:03:41;78076.66;;;-146.33
37414;BMP280;23279;46.472;30.760;2023-04-24T06:06:12;77995.25;;;-146.33
37414;BMP280;23279;46.472;30.760;2023-04-24T06:08:41;77987.13;;;-146.33
37414;BMP280;23279;46.472;30.760;2023-04-24T06:11:11;77917.94;;;-146.33
37414;BMP280;23279;46.472;30.760;2023-04-24T06:13:42;77905.72;;;-146.33
37414;BMP280;23279;46.472;30.760;2023-04-24T06:16:08;77893.50;;;-146.33
37414;BMP280;23279;46.472;30.760;2023-04-24T06:18:36;77903.69;;;-146.33
37414;BMP280;23279;46.472;30.760;2023-04-24T06:21:10;77909.78;;;-146.33
37414;BMP280;23279;46.472;30.760;2023-04-24T06:23:41;77978.97;;;-146.33
37414;BMP280;23279;46.472;30.760;2023-04-24T06:26:07;77938.28;;;-146.33
37414;BMP280;23279;46.472;30.760;2023-04-24T06:28:42;77942.34;;;-146.33
37414;BMP280;23279;46.472;30.760;2023-04-24T06:31:13;78023.75;;;-146.33
37414;BMP280;23279;46.472;30.760;2023-04-24T06:33:42;77976.94;;;-146.33
37414;BMP280;23279;46.472;30.760;2023-04-24T06:39:11;77873.16;;;-146.33
37414;BMP280;23279;46.472;30.760;2023-04-24T06:41:40;77897.56;;;-146.33
37414;BMP280;23279;46.472;30.760;2023-04-24T06:44:14;77909.78;;;-146.33
37414;BMP280;23279;46.472;30.760;2023-04-24T06:46:49;77958.63;;;-146.33
37414;BMP280;23279;46.472;30.760;2023-04-24T06:49:20;77922.00;;;-146.33
37414;BMP280;23279;46.472;30.760;2023-04-24T06:51:56;77917.94;;;-146.33
37414;BMP280;23279;46.472;30.760;2023-04-24T06:54:25;77909.78;;;-146.33
37414;BMP280;23279;46.472;30.760;2023-04-24T06:56:57;77907.75;;;-146.33
37414;BMP280;23279;46.472;30.760;2023-04-24T06:59:31;77942.34;;;-146.33
37414;BMP280;23279;46.472;30.760;2023-04-24T07:01:59;77942.34;;;-146.33
37414;BMP280;23279;46.472;30.760;2023-04-24T07:04:30;77928.09;;;-146.33
37414;BMP280;23279;46.472;30.760;2023-04-24T07:07:02;77938.28;;;-146.33
37414;BMP280;23279;46.472;30.760;2023-04-24T07:09:30;77950.47;;;-146.33
37414;BMP280;23279;46.472;30.760;2023-04-24T07:12:15;77976.94;;;-146.33
37414;BMP280;23279;46.472;30.760;2023-04-24T07:14:50;78005.44;;;-146.33
37414;BMP280;23279;46.472;30.760;2023-04-24T07:17:15;78001.34;;;-146.33
37414;BMP280;23279;46.472;30.760;2023-04-24T07:22:58;77972.88;;;-146.33
37414;BMP280;23279;46.472;30.760;2023-04-24T07:25:24;77991.19;;;-146.33
37414;BMP280;23279;46.472;30.760;2023-04-24T07:27:49;77966.75;;;-146.33
37414;BMP280;23279;46.472;30.760;2023-04-24T07:30:15;77978.97;;;-146.33
37414;BMP280;23279;46.472;30.760;2023-04-24T07:32:41;77954.56;;;-146.33
37414;BMP280;23279;46.472;30.760;2023-04-24T07:35:06;77938.28;;;-146.33
37414;BMP280;23279;46.472;30.760;2023-04-24T07:37:32;77930.13;;;-146.33
37414;BMP280;23279;46.472;30.760;2023-04-24T07:39:57;77936.25;;;-146.33
37414;BMP280;23279;46.472;30.760;2023-04-24T07:42:23;77922.00;;;-146.33
37414;BMP280;23279;46.472;30.760;2023-04-24T07:44:48;77897.56;;;-146.33
37414;BMP280;23279;46.472;30.760;2023-04-24T07:47:14;77938.28;;;-146.33
37414;BMP280;23279;46.472;30.760;2023-04-24T07:49:42;77897.56;;;-146.33
37414;BMP280;23279;46.472;30.760;2023-04-24T07:52:08;77891.47;;;-146.33
37414;BMP280;23279;46.472;30.760;2023-04-24T07:54:33;77909.78;;;-146.33
37414;BMP280;23279;46.472;30.760;2023-04-24T07:56:59;77970.84;;;-146.33
37414;BMP280;23279;46.472;30.760;2023-04-24T07:59:25;77922.00;;;-146.33
37414;BMP280;23279;46.472;30.760;2023-04-24T08:01:50;77905.72;;;-146.33
37414;BMP280;23279;46.472;30.760;2023-04-24T08:04:16;77897.56;;;-146.33
37414;BMP280;23279;46.472;30.760;2023-04-24T08:06:43;77897.56;;;-146.33
37414;BMP280;23279;46.472;30.760;2023-04-24T08:09:08;77934.19;;;-146.33
37414;BMP280;23279;46.472;30.760;2023-04-24T08:11:34;77997.28;;;-146.33
37414;BMP280;23279;46.472;30.760;2023-04-24T08:13:59;77958.63;;;-146.33
37414;BMP280;23279;46.472;30.760;2023-04-24T08:16:25;77928.09;;;-146.33
37414;BMP280;23279;46.472;30.760;2023-04-24T08:18:51;78031.88;;;-146.33
37414;BMP280;23279;46.472;30.760;2023-04-24T08:21:16;78011.53;;;-146.33
37414;BMP280;23279;46.472;30.760;2023-04-24T08:23:44;78027.81;;;-146.33
37414;BMP280;23279;46.472;30.760;2023-04-24T08:26:10;77987.13;;;-146.33
37414;BMP280;23279;46.472;30.760;2023-04-24T08:28:36;77958.63;;;-146.33
37414;BMP280;23279;46.472;30.760;2023-04-24T08:31:02;77954.56;;;-146.33
37414;BMP280;23279;46.472;30.760;2023-04-24T08:33:27;77938.28;;;-146.33
37414;BMP280;23279;46.472;30.760;2023-04-24T08:36:02;77954.56;;;-146.33
37414;BMP280;23279;46.472;30.760;2023-04-24T08:38:28;77924.03;;;-146.33
37414;BMP280;23279;46.472;30.760;2023-04-24T08:40:54;77950.47;;;-146.33
37414;BMP280;23279;46.472;30.760;2023-04-24T08:43:22;77922.00;;;-146.33
37414;BMP280;23279;46.472;30.760;2023-04-24T08:45:48;77950.47;;;-146.33
37414;BMP280;23279;46.472;30.760;2023-04-24T08:48:14;77966.75;;;-146.33
37414;BMP280;23279;46.472;30.760;2023-04-24T08:50:41;77909.78;;;-146.33
37414;BMP280;23279;46.472;30.760;2023-04-24T08:53:08;77938.28;;;-146.33
37414;BMP280;23279;46.472;30.760;2023-04-24T08:55:34;77922.00;;;-146.33
37414;BMP280;23279;46.472;30.760;2023-04-24T08:58:01;77919.97;;;-146.33
37414;BMP280;23279;46.472;30.760;2023-04-24T09:00:28;77881.31;;;-146.33
37414;BMP280;23279;46.472;30.760;2023-04-24T09:02:53;77871.13;;;-146.33
37414;BMP280;23279;46.472;30.760;2023-04-24T09:05:21;77901.66;;;-146.33
37414;BMP280;23279;46.472;30.760;2023-04-24T09:07:53;77922.00;;;-146.33
37414;BMP280;23279;46.472;30.760;2023-04-24T09:10:20;77924.03;;;-146.33
37414;BMP280;23279;46.472;30.760;2023-04-24T09:12:46;77942.34;;;-146.33
37414;BMP280;23279;46.472;30.760;2023-04-24T09:15:15;77917.94;;;-146.33
37414;BMP280;23279;46.472;30.760;2023-04-24T09:17:40;78027.81;;;-146.33
37414;BMP280;23279;46.472;30.760;2023-04-24T09:20:06;78007.47;;;-146.33
37414;BMP280;23279;46.472;30.760;2023-04-24T09:22:32;78052.22;;;-146.33
37414;BMP280;23279;46.472;30.760;2023-04-24T09:25:05;77981.00;;;-146.33
37414;BMP280;23279;46.472;30.760;2023-04-24T09:27:32;77938.28;;;-146.33
37414;BMP280;23279;46.472;30.760;2023-04-24T09:29:59;77950.47;;;-146.33
37414;BMP280;23279;46.472;30.760;2023-04-24T09:32:25;77924.03;;;-146.33
37414;BMP280;23279;46.472;30.760;2023-04-24T09:35:08;77899.59;;;-146.33
37414;BMP280;23279;46.472;30.760;2023-04-24T09:37:38;77924.03;;;-146.33
37414;BMP280;23279;46.472;30.760;2023-04-24T09:40:09;77936.25;;;-146.33
37414;BMP280;23279;46.472;30.760;2023-04-24T09:42:37;77950.47;;;-146.33
37414;BMP280;23279;46.472;30.760;2023-04-24T09:45:02;77987.13;;;-146.33
37414;BMP280;23279;46.472;30.760;2023-04-24T09:47:36;77968.78;;;-146.33
37414;BMP280;23279;46.472;30.760;2023-04-24T09:50:09;77950.47;;;-146.33
37414;BMP280;23279;46.472;30.760;2023-04-24T09:52:35;77999.31;;;-146.33
37414;BMP280;23279;46.472;30.760;2023-04-24T09:55:01;78011.53;;;-146.33
37414;BMP280;23279;46.472;30.760;2023-04-24T09:57:26;78023.75;;;-146.33
37414;BMP280;23279;46.472;30.760;2023-04-24T09:59:53;78015.59;;;-146.33
37414;BMP280;23279;46.472;30.760;2023-04-24T10:02:19;78040.03;;;-146.33
37414;BMP280;23279;46.472;30.760;2023-04-24T10:04:55;77954.56;;;-146.33
37414;BMP280;23279;46.472;30.760;2023-04-24T10:07:28;77962.69;;;-146.33
37414;BMP280;23279;46.472;30.760;2023-04-24T10:09:54;77966.75;;;-146.33
37414;BMP280;23279;46.472;30.760;2023-04-24T10:12:20;77972.88;;;-146.33
37414;BMP280;23279;46.472;30.760;2023-04-24T10:14:46;78097.00;;;-146.33
37414;BMP280;23279;46.472;30.760;2023-04-24T10:17:12;78141.75;;;-146.33
37414;BMP280;23279;46.472;30.760;2023-04-24T10:19:40;78129.56;;;-146.33
37414;BMP280;23279;46.472;30.760;2023-04-24T10:22:06;78123.44;;;-146.33
37414;BMP280;23279;46.472;30.760;2023-04-24T10:24:33;78097.00;;;-146.33
37414;BMP280;23279;46.472;30.760;2023-04-24T10:26:59;78115.31;;;-146.33
37414;BMP280;23279;46.472;30.760;2023-04-24T10:29:27;78076.66;;;-146.33
37414;BMP280;23279;46.472;30.760;2023-04-24T10:31:53;78040.03;;;-146.33
37414;BMP280;23279;46.472;30.760;2023-04-24T10:34:20;78048.16;;;-146.33
37414;BMP280;23279;46.472;30.760;2023-04-24T10:36:54;78062.41;;;-146.33
37414;BMP280;23279;46.472;30.760;2023-04-24T10:39:21;78033.91;;;-146.33
37414;BMP280;23279;46.472;30.760;2023-04-24T10:41:48;78052.22;;;-146.33
37414;BMP280;23279;46.472;30.760;2023-04-24T10:44:15;78017.63;;;-146.33
37414;BMP280;23279;46.472;30.760;2023-04-24T10:46:53;78007.47;;;-146.33
37414;BMP280;23279;46.472;30.760;2023-04-24T10:49:27;78015.59;;;-146.33
37414;BMP280;23279;46.472;30.760;2023-04-24T10:51:54;77987.13;;;-146.33
37414;BMP280;23279;46.472;30.760;2023-04-24T10:59:51;78066.47;;;-146.33
37414;BMP280;23279;46.472;30.760;2023-04-24T11:02:18;78078.69;;;-146.33
37414;BMP280;23279;46.472;30.760;2023-04-24T11:04:44;78040.03;;;-146.33
37414;BMP280;23279;46.472;30.760;2023-04-24T11:07:11;78025.78;;;-146.33
37414;BMP280;23279;46.472;30.760;2023-04-24T11:09:37;77985.06;;;-146.33
37414;BMP280;23279;46.472;30.760;2023-04-24T11:12:10;77987.13;;;-146.33
37414;BMP280;23279;46.472;30.760;2023-04-24T11:17:30;78023.75;;;-146.33
37414;BMP280;23279;46.472;30.760;2023-04-24T11:20:04;78027.81;;;-146.33
37414;BMP280;23279;46.472;30.760;2023-04-24T11:22:35;77983.03;;;-146.33
37414;BMP280;23279;46.472;30.760;2023-04-24T11:25:02;78009.50;;;-146.33
37414;BMP280;23279;46.472;30.760;2023-04-24T11:27:30;78001.34;;;-146.33
37414;BMP280;23279;46.472;30.760;2023-04-24T11:35:31;77936.25;;;-146.33
37414;BMP280;23279;46.472;30.760;2023-04-24T11:37:52;77905.72;;;-146.33
37414;BMP280;23279;46.472;30.760;2023-04-24T11:40:20;77885.38;;;-146.33
37414;BMP280;23279;46.472;30.760;2023-04-24T11:42:47;77889.44;;;-146.33
37414;BMP280;23279;46.472;30.760;2023-04-24T11:45:14;77867.06;;;-146.33
37414;BMP280;23279;46.472;30.760;2023-04-24T11:47:41;77893.50;;;-146.33
37414;BMP280;23279;46.472;30.760;2023-04-24T11:50:12;77883.34;;;-146.33
37414;BMP280;23279;46.472;30.760;2023-04-24T11:52:39;77838.56;;;-146.33
37414;BMP280;23279;46.472;30.760;2023-04-24T11:57:45;77799.91;;;-146.33
37414;BMP280;23279;46.472;30.760;2023-04-24T12:00:18;77820.25;;;-146.33
37414;BMP280;23279;46.472;30.760;2023-04-24T12:02:43;77828.41;;;-146.33
37414;BMP280;23279;46.472;30.760;2023-04-24T12:05:19;77846.72;;;-146.33
37414;BMP280;23279;46.472;30.760;2023-04-24T12:07:45;77820.25;;;-146.33
37414;BMP280;23279;46.472;30.760;2023-04-24T12:10:10;77806.00;;;-146.33
37414;BMP280;23279;46.472;30.760;2023-04-24T12:12:36;77759.22;;;-146.33
37414;BMP280;23279;46.472;30.760;2023-04-24T12:15:06;77718.53;;;-146.33
37414;BMP280;23279;46.472;30.760;2023-04-24T12:17:33;77779.56;;;-146.33
37414;BMP280;23279;46.472;30.760;2023-04-24T12:20:05;77771.41;;;-146.33
37414;BMP280;23279;46.472;30.760;2023-04-24T12:22:50;77775.50;;;-146.33
37414;BMP280;23279;46.472;30.760;2023-04-24T12:25:18;77751.06;;;-146.33
37414;BMP280;23279;46.472;30.760;2023-04-24T12:27:45;77779.56;;;-146.33
37414;BMP280;23279;46.472;30.760;2023-04-24T12:30:13;77751.06;;;-146.33
37414;BMP280;23279;46.472;30.760;2023-04-24T12:32:47;77783.63;;;-146.33
37414;BMP280;23279;46.472;30.760;2023-04-24T12:35:13;77759.22;;;-146.33
37414;BMP280;23279;46.472;30.760;2023-04-24T12:37:42;77751.06;;;-146.33
37414;BMP280;23279;46.472;30.760;2023-04-24T12:40:12;77742.94;;;-146.33
37414;BMP280;23279;46.472;30.760;2023-04-24T12:42:45;77706.31;;;-146.33
37414;BMP280;23279;46.472;30.760;2023-04-24T12:45:11;77698.16;;;-146.33
37414;BMP280;23279;46.472;30.760;2023-04-24T12:47:38;77775.50;;;-146.33
37414;BMP280;23279;46.472;30.760;2023-04-24T12:50:04;77763.28;;;-146.33
37414;BMP280;23279;46.472;30.760;2023-04-24T12:52:30;77755.16;;;-146.33
37414;BMP280;23279;46.472;30.760;2023-04-24T12:54:57;77755.16;;;-146.33
37414;BMP280;23279;46.472;30.760;2023-04-24T12:57:24;77832.47;;;-146.33
37414;BMP280;23279;46.472;30.760;2023-04-24T12:59:50;77897.56;;;-146.33
37414;BMP280;23279;46.472;30.760;2023-04-24T13:02:16;77909.78;;;-146.33
37414;BMP280;23279;46.472;30.760;2023-04-24T13:04:49;77877.22;;;-146.33
37414;BMP280;23279;46.472;30.760;2023-04-24T13:07:15;77869.09;;;-146.33
37414;BMP280;23279;46.472;30.760;2023-04-24T13:09:41;77832.47;;;-146.33
37414;BMP280;23279;46.472;30.760;2023-04-24T13:12:08;77836.53;;;-146.33
37414;BMP280;23279;46.472;30.760;2023-04-24T13:14:34;77801.94;;;-146.33
37414;BMP280;23279;46.472;30.760;2023-04-24T13:17:00;77856.88;;;-146.33
37414;BMP280;23279;46.472;30.760;2023-04-24T13:19:26;77919.97;;;-146.33
37414;BMP280;23279;46.472;30.760;2023-04-24T13:21:52;77873.16;;;-146.33
37414;BMP280;23279;46.472;30.760;2023-04-24T13:24:18;77838.56;;;-146.33
37414;BMP280;23279;46.472;30.760;2023-04-24T13:26:43;77828.41;;;-146.33
37414;BMP280;23279;46.472;30.760;2023-04-24T13:29:09;77803.97;;;-146.33
37414;BMP280;23279;46.472;30.760;2023-04-24T13:31:35;77781.59;;;-146.33
37414;BMP280;23279;46.472;30.760;2023-04-24T13:34:02;77801.94;;;-146.33
37414;BMP280;23279;46.472;30.760;2023-04-24T13:36:27;77791.78;;;-146.33
37414;BMP280;23279;46.472;30.760;2023-04-24T13:38:53;77783.63;;;-146.33
37414;BMP280;23279;46.472;30.760;2023-04-24T13:41:18;77818.22;;;-146.33
37414;BMP280;23279;46.472;30.760;2023-04-24T13:43:44;77836.53;;;-146.33
37414;BMP280;23279;46.472;30.760;2023-04-24T13:46:10;77799.91;;;-146.33
37414;BMP280;23279;46.472;30.760;2023-04-24T13:48:35;77822.28;;;-146.33
37414;BMP280;23279;46.472;30.760;2023-04-24T13:51:01;77799.91;;;-146.33
37414;BMP280;23279;46.472;30.760;2023-04-24T13:53:26;77828.41;;;-146.33